createdAt,value
2019-01-05T00:02:14.418Z,6.37
2019-01-05T00:05:01.674Z,6.42
2019-01-05T00:07:41.865Z,6.39
2019-01-05T00:10:19.094Z,6.37
2019-01-05T00:12:58.950Z,6.39
2019-01-05T00:15:46.225Z,6.41
2019-01-05T00:18:33.317Z,6.41
2019-01-05T00:21:05.051Z,6.43
2019-01-05T00:23:36.247Z,6.42
2019-01-05T00:26:16.171Z,6.40
2019-01-05T00:28:47.348Z,6.42
2019-01-05T00:31:22.504Z,6.42
2019-01-05T00:33:59.215Z,6.44
2019-01-05T00:36:48.944Z,6.43
2019-01-05T00:39:37.912Z,6.43
2019-01-05T00:42:18.930Z,6.47
2019-01-05T00:44:52.958Z,6.48
2019-01-05T00:47:29.326Z,6.49
2019-01-05T00:50:05.675Z,6.52
2019-01-05T00:52:54.775Z,6.54
2019-01-05T00:55:31.982Z,6.52
2019-01-05T00:58:14.929Z,6.49
2019-01-05T01:00:51.989Z,6.53
2019-01-05T01:03:22.901Z,6.55
2019-01-05T01:06:09.104Z,6.54
2019-01-05T01:08:45.799Z,6.57
2019-01-05T01:11:25.517Z,6.56
2019-01-05T01:13:59.231Z,6.62
2019-01-05T01:16:42.246Z,6.59
2019-01-05T01:19:22.038Z,6.60
2019-01-05T01:21:59.239Z,6.61
2019-01-05T01:24:30.484Z,6.61
2019-01-05T01:27:04.152Z,6.63
2019-01-05T01:29:40.851Z,6.65
2019-01-05T01:32:17.326Z,6.65
2019-01-05T01:34:50.897Z,6.69
2019-01-05T01:37:38.183Z,6.71
2019-01-05T01:40:09.440Z,6.71
2019-01-05T01:42:40.335Z,6.69
2019-01-05T01:45:11.216Z,6.71
2019-01-05T01:47:58.398Z,6.72
2019-01-05T01:50:32.046Z,6.73
2019-01-05T01:53:22.098Z,6.71
2019-01-05T01:56:01.626Z,6.72
2019-01-05T01:58:41.380Z,6.72
2019-01-05T02:01:12.786Z,6.70
2019-01-05T02:04:00.407Z,6.70
2019-01-05T02:06:48.718Z,6.66
2019-01-05T02:09:20.935Z,6.66
2019-01-05T02:12:07.472Z,6.65
2019-01-05T02:14:42.871Z,6.65
2019-01-05T02:17:32.111Z,6.65
2019-01-05T02:20:33.249Z,6.65
2019-01-05T02:23:43.866Z,6.64
2019-01-05T02:26:47.778Z,6.60
2019-01-05T02:29:46.666Z,6.60
2019-01-05T02:33:01.010Z,6.58
2019-01-05T02:36:07.713Z,6.59
2019-01-05T02:38:56.372Z,6.57
2019-01-05T02:41:52.307Z,6.62
2019-01-05T02:44:34.980Z,6.58
2019-01-05T02:47:23.683Z,6.58
2019-01-05T02:50:21.415Z,6.57
2019-01-05T02:53:11.823Z,6.56
2019-01-05T02:56:19.834Z,6.57
2019-01-05T02:59:27.158Z,6.56
2019-01-05T03:02:35.230Z,6.57
2019-01-05T03:05:37.447Z,6.58
2019-01-05T03:08:32.229Z,6.58
2019-01-05T03:11:21.008Z,6.58
2019-01-05T03:14:26.574Z,6.58
2019-01-05T03:17:24.780Z,6.58
2019-01-05T03:20:30.331Z,6.59
2019-01-05T03:23:43.144Z,6.59
2019-01-05T03:26:17.002Z,6.58
2019-01-05T03:29:22.575Z,6.58
2019-01-05T03:32:15.193Z,6.58
2019-01-05T03:35:00.834Z,6.59
2019-01-05T03:38:16.979Z,6.59
2019-01-05T03:41:01.957Z,6.61
2019-01-05T03:43:52.764Z,6.61
2019-01-05T03:50:13.635Z,6.64
2019-01-05T03:53:05.347Z,6.65
2019-01-05T03:55:48.019Z,6.66
2019-01-05T03:58:48.699Z,6.67
2019-01-05T04:01:59.672Z,6.64
2019-01-05T04:04:48.663Z,6.59
2019-01-05T04:07:49.495Z,6.55
2019-01-05T04:10:39.725Z,6.52
2019-01-05T04:13:13.549Z,6.52
2019-01-05T04:16:08.221Z,6.51
2019-01-05T04:19:23.554Z,6.49
2019-01-05T04:22:22.969Z,6.47
2019-01-05T04:25:37.991Z,6.48
2019-01-05T04:28:36.039Z,6.43
2019-01-05T04:31:39.540Z,6.46
2019-01-05T04:34:44.942Z,6.42
2019-01-05T04:38:02.960Z,6.41
2019-01-05T04:40:51.526Z,6.41
2019-01-05T04:43:49.275Z,6.38
2019-01-05T04:46:28.789Z,6.37
2019-01-05T04:49:35.840Z,6.36
2019-01-05T04:52:33.362Z,6.37
2019-01-05T04:55:45.022Z,6.36
2019-01-05T04:58:43.828Z,6.36
2019-01-05T05:01:43.091Z,6.38
2019-01-05T05:04:23.112Z,6.37
2019-01-05T05:07:33.120Z,6.39
2019-01-05T05:10:21.835Z,6.42
2019-01-05T05:13:16.823Z,6.44
2019-01-05T05:16:14.484Z,6.44
2019-01-05T05:19:16.911Z,6.46
2019-01-05T05:21:59.202Z,6.49
2019-01-05T05:24:47.374Z,6.55
2019-01-05T05:27:35.862Z,6.59
2019-01-05T05:30:45.881Z,6.60
2019-01-05T05:33:46.940Z,6.61
2019-01-05T05:36:40.788Z,6.61
2019-01-05T05:39:26.179Z,6.62
2019-01-05T05:42:32.134Z,6.65
2019-01-05T05:45:25.132Z,6.69
2019-01-05T05:48:32.003Z,6.68
2019-01-05T05:51:23.945Z,6.72
2019-01-05T05:54:33.958Z,6.73
2019-01-05T05:57:40.840Z,6.78
2019-01-05T06:00:32.382Z,6.75
2019-01-05T06:03:11.856Z,6.73
2019-01-05T06:05:56.840Z,6.75
2019-01-05T06:09:01.655Z,6.73
2019-01-05T06:12:00.843Z,6.66
2019-01-05T06:15:13.762Z,6.60
2019-01-05T06:17:56.675Z,6.58
2019-01-05T06:21:08.289Z,6.57
2019-01-05T06:24:17.217Z,6.59
2019-01-05T06:27:10.365Z,6.60
2019-01-05T06:30:27.343Z,6.62
2019-01-05T06:33:29.743Z,6.63
2019-01-05T06:36:28.937Z,6.66
2019-01-05T06:39:14.523Z,6.65
2019-01-05T06:42:05.849Z,6.71
2019-01-05T06:45:14.222Z,6.72
2019-01-05T06:48:27.084Z,6.69
2019-01-05T06:51:17.309Z,6.70
2019-01-05T06:53:56.921Z,6.67
2019-01-05T06:56:53.072Z,6.69
2019-01-05T06:59:51.109Z,6.67
2019-01-05T07:02:45.743Z,6.64
2019-01-05T07:05:57.422Z,6.65
2019-01-05T07:08:50.763Z,6.64
2019-01-05T07:11:42.816Z,6.62
2019-01-05T07:14:51.376Z,6.65
2019-01-05T07:17:48.915Z,6.64
2019-01-05T07:20:37.630Z,6.62
2019-01-05T07:23:43.162Z,6.61
2019-01-05T07:26:53.246Z,6.57
2019-01-05T07:30:16.595Z,6.58
2019-01-05T07:33:15.345Z,6.61
2019-01-05T07:36:09.995Z,6.64
2019-01-05T07:38:49.131Z,6.63
2019-01-05T07:41:45.623Z,6.66
2019-01-05T07:44:49.469Z,6.65
2019-01-05T07:48:14.829Z,6.69
2019-01-05T07:51:19.838Z,6.67
2019-01-05T07:54:11.692Z,6.66
2019-01-05T07:56:57.182Z,6.64
2019-01-05T07:59:59.284Z,6.65
2019-01-05T08:03:09.002Z,6.67
2019-01-05T08:05:51.595Z,6.65
2019-01-05T08:08:49.028Z,6.63
2019-01-05T08:12:00.891Z,6.64
2019-01-05T08:15:11.736Z,6.64
2019-01-05T08:18:09.879Z,6.66
2019-01-05T08:21:22.781Z,6.64
2019-01-05T08:24:26.312Z,6.65
2019-01-05T08:27:37.152Z,6.63
2019-01-05T08:30:30.313Z,6.64
2019-01-05T08:33:23.328Z,6.67
2019-01-05T08:36:36.391Z,6.70
2019-01-05T08:39:45.579Z,6.70
2019-01-05T08:43:02.181Z,6.72
2019-01-05T08:46:15.476Z,6.74
2019-01-05T08:49:25.756Z,6.72
2019-01-05T08:52:23.395Z,6.73
2019-01-05T08:55:21.228Z,6.76
2019-01-05T08:58:33.643Z,6.76
2019-01-05T09:01:34.961Z,6.77
2019-01-05T09:04:41.852Z,6.78
2019-01-05T09:08:05.305Z,6.80
2019-01-05T09:11:18.170Z,6.79
2019-01-05T09:14:21.983Z,6.80
2019-01-05T09:17:13.609Z,6.83
2019-01-05T09:19:59.024Z,6.81
2019-01-05T09:22:58.152Z,6.85
2019-01-05T09:26:23.058Z,6.84
2019-01-05T09:29:15.882Z,6.87
2019-01-05T09:32:24.164Z,6.88
2019-01-05T09:35:26.492Z,6.87
2019-01-05T09:38:19.035Z,6.85
2019-01-05T09:41:20.800Z,6.92
2019-01-05T09:44:18.420Z,6.96
2019-01-05T09:47:22.373Z,6.94
2019-01-05T09:50:27.706Z,6.95
2019-01-05T09:53:13.377Z,6.99
2019-01-05T09:56:11.212Z,6.98
2019-01-05T09:59:11.748Z,6.92
2019-01-05T10:02:09.362Z,6.92
2019-01-05T10:04:55.023Z,6.96
2019-01-05T10:07:40.669Z,6.93
2019-01-05T10:10:31.741Z,6.94
2019-01-05T10:13:14.360Z,6.94
2019-01-05T10:16:32.353Z,6.93
2019-01-05T10:19:40.424Z,6.96
2019-01-05T10:23:03.930Z,6.96
2019-01-05T10:25:46.645Z,6.93
2019-01-05T10:28:47.527Z,6.89
2019-01-05T10:31:47.077Z,6.91
2019-01-05T10:34:58.561Z,6.91
2019-01-05T10:38:17.586Z,6.87
2019-01-05T10:41:33.488Z,6.90
2019-01-05T10:44:16.331Z,6.90
2019-01-05T10:47:01.834Z,6.89
2019-01-05T10:50:04.827Z,6.89
2019-01-05T10:52:53.717Z,6.89
2019-01-05T10:55:54.289Z,6.90
2019-01-05T10:58:46.361Z,6.90
2019-01-05T11:01:32.034Z,6.87
2019-01-05T11:04:44.236Z,6.88
2019-01-05T11:07:30.129Z,6.85
2019-01-05T11:10:49.184Z,6.83
2019-01-05T11:14:01.963Z,6.85
2019-01-05T11:16:53.628Z,6.80
2019-01-05T11:20:07.287Z,6.80
2019-01-05T11:23:15.549Z,6.82
2019-01-05T11:26:08.965Z,6.80
2019-01-05T11:29:25.115Z,6.80
2019-01-05T11:32:23.175Z,6.79
2019-01-05T11:35:26.924Z,6.79
2019-01-05T11:38:15.854Z,6.78
2019-01-05T11:41:13.499Z,6.74
2019-01-05T11:44:22.174Z,6.76
2019-01-05T11:47:10.899Z,6.75
2019-01-05T11:50:14.663Z,6.76
2019-01-05T11:53:12.630Z,6.71
2019-01-05T11:56:18.057Z,6.65
2019-01-05T11:59:16.053Z,6.65
2019-01-05T12:02:19.771Z,6.62
2019-01-05T12:04:59.562Z,6.65
2019-01-05T12:08:12.556Z,6.67
2019-01-05T12:11:11.320Z,6.63
2019-01-05T12:14:19.871Z,6.62
2019-01-05T12:17:02.713Z,6.59
2019-01-05T12:19:39.210Z,6.54
2019-01-05T12:22:29.109Z,6.56
2019-01-05T12:25:29.961Z,6.54
2019-01-05T12:28:38.387Z,6.49
2019-01-05T12:31:30.368Z,6.47
2019-01-05T12:34:26.742Z,6.43
2019-01-05T12:37:35.137Z,6.41
2019-01-05T12:40:45.042Z,6.43
2019-01-05T12:43:47.718Z,6.46
2019-01-05T12:46:49.549Z,6.45
2019-01-05T12:49:40.857Z,6.46
2019-01-05T12:52:38.815Z,6.42
2019-01-05T12:55:32.237Z,6.42
2019-01-05T12:58:45.334Z,6.39
2019-01-05T13:01:53.852Z,6.39
2019-01-05T13:04:57.431Z,6.40
2019-01-05T13:07:52.153Z,6.36
2019-01-05T13:11:13.898Z,6.30
2019-01-05T13:14:05.510Z,6.25
2019-01-05T13:17:19.535Z,6.19
2019-01-05T13:20:31.305Z,6.16
2019-01-05T13:23:19.848Z,6.19
2019-01-05T13:26:14.269Z,6.18
2019-01-05T13:29:22.646Z,6.18
2019-01-05T13:32:24.308Z,6.14
2019-01-05T13:35:21.018Z,6.10
2019-01-05T13:38:30.981Z,6.09
2019-01-05T13:41:24.244Z,6.08
2019-01-05T13:44:26.992Z,6.08
2019-01-05T13:47:31.157Z,6.02
2019-01-05T13:50:34.529Z,6.01
2019-01-05T13:53:26.044Z,6.00
2019-01-05T13:56:00.089Z,6.01
2019-01-05T13:58:36.748Z,5.97
2019-01-05T14:01:07.918Z,5.99
2019-01-05T14:03:56.858Z,6.00
2019-01-05T14:06:27.769Z,6.01
2019-01-05T14:09:01.397Z,6.00
2019-01-05T14:11:32.325Z,5.99
2019-01-05T14:14:24.212Z,6.00
2019-01-05T14:16:55.086Z,5.97
2019-01-05T14:19:38.026Z,5.93
2019-01-05T14:22:25.324Z,5.95
2019-01-05T14:24:59.435Z,5.95
2019-01-05T14:27:46.453Z,5.94
2019-01-05T14:30:20.321Z,5.96
2019-01-05T14:33:03.230Z,5.96
2019-01-05T14:35:50.666Z,5.96
2019-01-05T14:38:24.346Z,5.96
2019-01-05T14:40:57.982Z,6.00
2019-01-05T14:43:31.501Z,6.01
2019-01-05T14:46:18.899Z,6.01
2019-01-05T14:48:49.797Z,6.03
2019-01-05T14:51:20.664Z,6.04
2019-01-05T14:53:51.566Z,6.03
2019-01-05T14:56:31.612Z,6.04
2019-01-05T14:59:19.086Z,6.07
2019-01-05T15:02:01.995Z,6.04
2019-01-05T15:04:48.259Z,6.06
2019-01-05T15:07:25.227Z,6.04
2019-01-05T15:10:05.368Z,6.05
2019-01-05T15:12:42.291Z,6.07
2019-01-05T15:15:22.004Z,6.04
2019-01-05T15:17:56.186Z,6.05
2019-01-05T15:20:35.893Z,6.05
2019-01-05T15:23:15.620Z,6.07
2019-01-05T15:25:52.336Z,6.03
2019-01-05T15:28:26.201Z,6.00
2019-01-05T15:30:57.057Z,5.99
2019-01-05T15:33:42.995Z,5.99
2019-01-05T15:36:19.989Z,5.98
2019-01-05T15:38:53.567Z,5.99
2019-01-05T15:41:40.776Z,5.97
2019-01-05T15:44:20.723Z,5.94
2019-01-05T15:46:54.277Z,5.95
2019-01-05T15:49:42.895Z,5.95
2019-01-05T15:52:30.121Z,5.94
2019-01-05T15:55:17.554Z,5.93
2019-01-05T15:57:48.433Z,5.90
2019-01-05T16:00:35.729Z,5.85
2019-01-05T16:03:06.624Z,5.87
2019-01-05T16:05:40.215Z,5.86
2019-01-05T16:08:16.890Z,5.87
2019-01-05T16:11:04.284Z,5.87
2019-01-05T16:13:35.186Z,5.87
2019-01-05T16:16:06.083Z,5.83
2019-01-05T16:18:53.221Z,5.83
2019-01-05T16:21:29.826Z,5.81
2019-01-05T16:24:15.832Z,5.78
2019-01-05T16:27:02.740Z,5.76
2019-01-05T16:29:50.174Z,5.75
2019-01-05T16:32:26.911Z,5.76
2019-01-05T16:34:58.192Z,5.75
2019-01-05T16:37:45.484Z,5.74
2019-01-05T16:40:31.983Z,5.72
2019-01-05T16:43:18.940Z,5.73
2019-01-05T16:46:06.401Z,5.69
2019-01-05T16:48:46.498Z,5.67
2019-01-05T16:51:33.841Z,5.68
2019-01-05T16:54:19.845Z,5.68
2019-01-05T16:56:59.533Z,5.68
2019-01-05T16:59:45.563Z,5.66
2019-01-05T17:02:29.768Z,5.66
2019-01-05T17:05:12.750Z,5.65
2019-01-05T17:08:02.038Z,5.67
2019-01-05T17:10:51.330Z,5.71
2019-01-05T17:13:34.096Z,5.71
2019-01-05T17:16:21.456Z,5.72
2019-01-05T17:18:55.825Z,5.71
2019-01-05T17:21:38.968Z,5.68
2019-01-05T17:24:12.909Z,5.65
2019-01-05T17:26:43.745Z,5.67
2019-01-05T17:29:29.924Z,5.68
2019-01-05T17:32:03.819Z,5.67
2019-01-05T17:34:51.088Z,5.68
2019-01-05T17:37:22.301Z,5.64
2019-01-05T17:40:07.965Z,5.61
2019-01-05T17:42:57.293Z,5.60
2019-01-05T17:45:33.961Z,5.57
2019-01-05T17:48:11.436Z,5.61
2019-01-05T17:50:58.732Z,5.58
2019-01-05T17:53:46.120Z,5.62
2019-01-05T17:56:33.582Z,5.62
2019-01-05T17:59:19.907Z,5.58
2019-01-05T18:01:59.790Z,5.57
2019-01-05T18:04:47.213Z,5.56
2019-01-05T18:07:34.396Z,5.54
2019-01-05T18:10:21.673Z,5.54
2019-01-05T18:12:52.587Z,5.53
2019-01-05T18:15:42.393Z,5.55
2019-01-05T18:18:31.432Z,5.55
2019-01-05T18:21:02.316Z,5.55
2019-01-05T18:23:41.783Z,5.51
2019-01-05T18:26:21.602Z,5.53
2019-01-05T18:28:59.081Z,5.50
2019-01-05T18:31:33.016Z,5.50
2019-01-05T18:34:06.690Z,5.47
2019-01-05T18:36:37.630Z,5.51
2019-01-05T18:39:25.517Z,5.52
2019-01-05T18:41:56.398Z,5.53
2019-01-05T18:44:33.348Z,5.49
2019-01-05T18:47:13.189Z,5.50
2019-01-05T18:49:56.483Z,5.49
2019-01-05T18:52:43.748Z,5.48
2019-01-05T18:55:20.823Z,5.51
2019-01-05T18:57:54.902Z,5.51
2019-01-05T19:00:25.846Z,5.46
2019-01-05T19:03:06.125Z,5.45
2019-01-05T19:05:38.448Z,5.44
2019-01-05T19:08:15.004Z,5.44
2019-01-05T19:10:51.972Z,5.46
2019-01-05T19:13:39.052Z,5.43
2019-01-05T19:16:26.396Z,5.45
2019-01-05T19:19:00.165Z,5.43
2019-01-05T19:21:43.505Z,5.45
2019-01-05T19:24:26.751Z,5.44
2019-01-05T19:27:18.054Z,5.43
2019-01-05T19:29:49.061Z,5.39
2019-01-05T19:32:22.902Z,5.43
2019-01-05T19:34:53.775Z,5.40
2019-01-05T19:37:36.827Z,5.36
2019-01-05T19:40:25.532Z,5.38
2019-01-05T19:43:08.306Z,5.35
2019-01-05T19:45:39.226Z,5.31
2019-01-05T19:48:16.162Z,5.29
2019-01-05T19:51:05.308Z,5.29
2019-01-05T19:53:52.624Z,5.26
2019-01-05T19:56:35.515Z,5.23
2019-01-05T19:59:15.391Z,5.20
2019-01-05T20:01:52.052Z,5.18
2019-01-05T20:04:39.315Z,5.18
2019-01-05T20:07:29.634Z,5.21
2019-01-05T20:10:00.542Z,5.18
2019-01-05T20:12:47.517Z,5.13
2019-01-05T20:15:27.333Z,5.18
2019-01-05T20:18:04.164Z,5.13
2019-01-05T20:20:40.904Z,5.12
2019-01-05T20:23:14.496Z,5.13
2019-01-05T20:25:51.653Z,5.13
2019-01-05T20:28:22.544Z,5.10
2019-01-05T20:30:53.446Z,5.10
2019-01-05T20:33:30.633Z,5.10
2019-01-05T20:36:07.115Z,5.11
2019-01-05T20:38:40.995Z,5.08
2019-01-05T20:41:11.933Z,5.11
2019-01-05T20:43:59.372Z,5.08
2019-01-05T20:46:30.344Z,5.04
2019-01-05T20:49:10.449Z,5.03
2019-01-05T20:51:41.357Z,5.01
2019-01-05T20:54:28.442Z,5.04
2019-01-05T20:57:08.339Z,5.04
2019-01-05T20:59:55.369Z,5.05
2019-01-05T21:02:26.284Z,5.02
2019-01-05T21:05:06.300Z,5.01
2019-01-05T21:07:39.911Z,5.00
2019-01-05T21:10:27.993Z,4.99
2019-01-05T21:12:58.907Z,4.98
2019-01-05T21:15:44.832Z,5.01
2019-01-05T21:18:31.962Z,5.01
2019-01-05T21:21:06.051Z,5.02
2019-01-05T21:23:37.050Z,5.06
2019-01-05T21:26:07.982Z,5.06
2019-01-05T21:28:39.371Z,5.09
2019-01-05T21:31:22.298Z,5.05
2019-01-05T21:33:58.683Z,5.07
2019-01-05T21:36:38.626Z,5.05
2019-01-05T21:39:27.225Z,5.07
2019-01-05T21:42:10.227Z,5.07
2019-01-05T21:44:57.217Z,5.08
2019-01-05T21:47:44.483Z,5.11
2019-01-05T21:50:30.351Z,5.13
2019-01-05T21:53:04.195Z,5.12
2019-01-05T21:55:35.115Z,5.14
2019-01-05T21:58:06.030Z,5.12
2019-01-05T22:00:36.936Z,5.11
2019-01-05T22:03:07.760Z,5.13
2019-01-05T22:05:42.043Z,5.11
2019-01-05T22:08:12.950Z,5.12
2019-01-05T22:10:43.747Z,5.08
2019-01-05T22:13:17.635Z,5.09
2019-01-05T22:15:51.336Z,5.12
2019-01-05T22:18:34.233Z,5.13
2019-01-05T22:21:17.086Z,5.13
2019-01-05T22:23:47.987Z,5.17
2019-01-05T22:26:33.918Z,5.17
2019-01-05T22:29:10.778Z,5.18
2019-01-05T22:31:57.974Z,5.16
2019-01-05T22:34:31.887Z,5.17
2019-01-05T22:37:18.979Z,5.25
2019-01-05T22:40:01.913Z,5.27
2019-01-05T22:42:39.072Z,5.25
2019-01-05T22:45:10.415Z,5.23
2019-01-05T22:47:57.698Z,5.21
2019-01-05T22:50:40.556Z,5.19
2019-01-05T22:53:27.513Z,5.19
2019-01-05T22:56:13.389Z,5.17
2019-01-05T22:58:44.297Z,5.16
2019-01-05T23:01:18.065Z,5.16
2019-01-05T23:03:51.654Z,5.19
2019-01-05T23:06:25.847Z,5.19
2019-01-05T23:08:56.749Z,5.20
2019-01-05T23:11:34.153Z,5.23
2019-01-05T23:14:11.114Z,5.23
2019-01-05T23:16:42.030Z,5.25
2019-01-05T23:19:12.982Z,5.24
2019-01-05T23:21:46.600Z,5.24
2019-01-05T23:24:23.482Z,5.24
2019-01-05T23:26:57.053Z,5.25
2019-01-05T23:29:44.150Z,5.28
2019-01-05T23:32:31.371Z,5.26
2019-01-05T23:35:18.615Z,5.25
2019-01-05T23:37:52.486Z,5.26
2019-01-05T23:40:35.413Z,5.30
2019-01-05T23:43:18.298Z,5.32
2019-01-05T23:45:51.620Z,5.37
2019-01-05T23:48:38.882Z,5.39
2019-01-05T23:51:26.210Z,5.40
2019-01-05T23:54:13.331Z,5.40
2019-01-05T23:56:56.305Z,5.39
2019-01-05T23:59:27.220Z,5.41
